Robijn — PBEJ — position and weather

sailwx.info

Track history (hours):
 
Tides and Currents Weather Stations Pressure Air Temp Water Temp Dewpoint Dewpoint Depression Visibility Wind Speed Wind Dir Waves Ship Positions

Robijn

Last reported at 2016-Jun-25 04:31 UTC. Time now 2016-Jun-25 05:15 UTC.
Position N 53°25' E 014°36'.

Length 90 m; draft 3.9 m.

Type: Cargo ship. MMSI: 245909000.

Date/timePositionNaut miles runAvg speedWind from/ knotsBaromVisibWave heightAir tempDewpointWater temp
2016-Jun-25 04:31N 53°25' E 014°36'0 0.0
2016-Jun-25 03:31N 53°25' E 014°36'0 0.0
2016-Jun-25 02:31N 53°25' E 014°36'0 0.0
2016-Jun-25 01:31N 53°25' E 014°36'0 0.0
2016-Jun-25 00:31N 53°25' E 014°36'0 0.0
2016-Jun-24 23:31N 53°25' E 014°36'0 0.0
2016-Jun-24 22:31N 53°25' E 014°36'0 0.0
2016-Jun-24 21:31N 53°25' E 014°36'0 0.0
2016-Jun-24 20:31N 53°25' E 014°36'0 0.0
2016-Jun-24 19:31N 53°25' E 014°36'0 0.0
2016-Jun-24 18:31N 53°25' E 014°36'0 0.0
2016-Jun-24 17:31N 53°25' E 014°36'0 0.0
2016-Jun-24 16:31N 53°25' E 014°36'0 0.0
2016-Jun-24 15:31N 53°25' E 014°36'0 0.0
2016-Jun-24 14:31N 53°25' E 014°36'0 0.0
2016-Jun-24 13:31N 53°25' E 014°36'0 0.0
2016-Jun-24 12:31N 53°25' E 014°36'0 0.0
2016-Jun-24 11:31N 53°25' E 014°36'0 0.0
2016-Jun-24 10:31N 53°25' E 014°36'0 0.0
2016-Jun-24 09:31N 53°25' E 014°36'0 0.0
2016-Jun-24 08:31N 53°25' E 014°36'0 0.0
2016-Jun-24 07:31N 53°25' E 014°36'0 0.0
2016-Jun-24 06:31N 53°25' E 014°36'0 0.0
2016-Jun-24 04:31N 53°25' E 014°36'0 0.0
2016-Jun-24 03:31N 53°25' E 014°36'0 0.0
2016-Jun-24 02:25N 53°25' E 014°36'0 0.0
2016-Jun-24 01:31N 53°25' E 014°36'0 0.0
2016-Jun-24 00:31N 53°25' E 014°36'0 0.0
2016-Jun-23 23:31N 53°25' E 014°36'0 0.0
2016-Jun-23 22:31N 53°25' E 014°36'0 0.0
2016-Jun-23 21:31N 53°25' E 014°36'0 0.0
2016-Jun-23 20:28N 53°25' E 014°36'0 0.0
2016-Jun-23 19:31N 53°25' E 014°36'0 0.0
2016-Jun-23 18:31N 53°25' E 014°36'0 0.0
2016-Jun-23 17:31N 53°25' E 014°36'0 0.0
2016-Jun-23 16:31N 53°25' E 014°36'0 0.0
2016-Jun-23 15:31N 53°25' E 014°36'3 3.1
2016-Jun-23 14:33N 53°28' E 014°36'8 8.2
2016-Jun-23 13:33N 53°36' E 014°35'8 8.3
2016-Jun-23 12:33N 53°43' E 014°28'10 9.6
2016-Jun-23 11:33N 53°50' E 014°18'7 7.2
2016-Jun-23 10:33N 53°58' E 014°16'9 8.7
2016-Jun-23 09:34N 54°06' E 014°18'1110.6
2016-Jun-23 08:31N 54°10' E 014°35'3010.3
2016-Jun-23 05:33N 54°32' E 015°11'1111.2
2016-Jun-23 04:33N 54°42' E 015°20'1111.2
2016-Jun-23 03:34N 54°52' E 015°30'1110.7
2016-Jun-23 02:33N 55°01' E 015°38'1110.2
2016-Jun-23 01:31N 55°11' E 015°46'1010.3
2016-Jun-23 00:33N 55°20' E 015°53'1210.5
2016-Jun-22 23:24N 55°31' E 016°01'  
2016-Jun-16 10:32N 55°57' E 014°53'12 1.6
2016-Jun-16 03:21N 56°02' E 014°35'0 0.0
2016-Jun-16 01:21N 56°02' E 014°35'0 0.0
2016-Jun-16 00:33N 56°02' E 014°35'0 0.0
2016-Jun-15 23:33N 56°02' E 014°35'0 0.0
2016-Jun-15 19:33N 56°02' E 014°35'0 0.0
2016-Jun-15 18:33N 56°02' E 014°35'0 0.0
2016-Jun-15 17:21N 56°02' E 014°35'0 0.0
2016-Jun-15 16:27N 56°02' E 014°35'0 0.0
2016-Jun-15 15:33N 56°02' E 014°35'0 0.0
2016-Jun-15 14:33N 56°02' E 014°35'0 0.0
2016-Jun-15 13:21N 56°02' E 014°35'0 0.0
2016-Jun-15 12:21N 56°02' E 014°35'0 0.1
2016-Jun-15 11:30N 56°02' E 014°35'8 8.4
2016-Jun-15 10:33N 55°54' E 014°39'1110.7
2016-Jun-15 09:34N 55°44' E 014°39'1111.0
2016-Jun-15 08:33N 55°33' E 014°40'1110.6
2016-Jun-15 07:33N 55°22' E 014°37'1111.2
2016-Jun-15 06:33N 55°13' E 014°24'1111.4
2016-Jun-15 05:33N 55°04' E 014°12'1110.6
2016-Jun-15 04:33N 54°58' E 013°57'  
Track history (hours):
 
Tides and Currents Weather Stations Pressure Air Temp Water Temp Dewpoint Dewpoint Depression Visibility Wind Speed Wind Dir Waves Ship Positions

Robijn

Last reported at 2016-Jun-25 04:31 UTC. Time now 2016-Jun-25 05:15 UTC.
Position N 53°25' E 014°36'.

Length 90 m; draft 3.9 m.

Type: Cargo ship. MMSI: 245909000.

Date/timePositionNaut miles runAvg speedWind from/ knotsBaromVisibWave heightAir tempDewpointWater temp
2016-Jun-25 04:31N 53°25' E 014°36'0 0.0
2016-Jun-25 03:31N 53°25' E 014°36'0 0.0
2016-Jun-25 02:31N 53°25' E 014°36'0 0.0
2016-Jun-25 01:31N 53°25' E 014°36'0 0.0
2016-Jun-25 00:31N 53°25' E 014°36'0 0.0
2016-Jun-24 23:31N 53°25' E 014°36'0 0.0
2016-Jun-24 22:31N 53°25' E 014°36'0 0.0
2016-Jun-24 21:31N 53°25' E 014°36'0 0.0
2016-Jun-24 20:31N 53°25' E 014°36'0 0.0
2016-Jun-24 19:31N 53°25' E 014°36'0 0.0
2016-Jun-24 18:31N 53°25' E 014°36'0 0.0
2016-Jun-24 17:31N 53°25' E 014°36'0 0.0
2016-Jun-24 16:31N 53°25' E 014°36'0 0.0
2016-Jun-24 15:31N 53°25' E 014°36'0 0.0
2016-Jun-24 14:31N 53°25' E 014°36'0 0.0
2016-Jun-24 13:31N 53°25' E 014°36'0 0.0
2016-Jun-24 12:31N 53°25' E 014°36'0 0.0
2016-Jun-24 11:31N 53°25' E 014°36'0 0.0
2016-Jun-24 10:31N 53°25' E 014°36'0 0.0
2016-Jun-24 09:31N 53°25' E 014°36'0 0.0
2016-Jun-24 08:31N 53°25' E 014°36'0 0.0
2016-Jun-24 07:31N 53°25' E 014°36'0 0.0
2016-Jun-24 06:31N 53°25' E 014°36'0 0.0
2016-Jun-24 04:31N 53°25' E 014°36'0 0.0
2016-Jun-24 03:31N 53°25' E 014°36'0 0.0
2016-Jun-24 02:25N 53°25' E 014°36'0 0.0
2016-Jun-24 01:31N 53°25' E 014°36'0 0.0
2016-Jun-24 00:31N 53°25' E 014°36'0 0.0
2016-Jun-23 23:31N 53°25' E 014°36'0 0.0
2016-Jun-23 22:31N 53°25' E 014°36'0 0.0
2016-Jun-23 21:31N 53°25' E 014°36'0 0.0
2016-Jun-23 20:28N 53°25' E 014°36'0 0.0
2016-Jun-23 19:31N 53°25' E 014°36'0 0.0
2016-Jun-23 18:31N 53°25' E 014°36'0 0.0
2016-Jun-23 17:31N 53°25' E 014°36'0 0.0
2016-Jun-23 16:31N 53°25' E 014°36'0 0.0
2016-Jun-23 15:31N 53°25' E 014°36'3 3.1
2016-Jun-23 14:33N 53°28' E 014°36'8 8.2
2016-Jun-23 13:33N 53°36' E 014°35'8 8.3
2016-Jun-23 12:33N 53°43' E 014°28'10 9.6
2016-Jun-23 11:33N 53°50' E 014°18'7 7.2
2016-Jun-23 10:33N 53°58' E 014°16'9 8.7
2016-Jun-23 09:34N 54°06' E 014°18'1110.6
2016-Jun-23 08:31N 54°10' E 014°35'3010.3
2016-Jun-23 05:33N 54°32' E 015°11'1111.2
2016-Jun-23 04:33N 54°42' E 015°20'1111.2
2016-Jun-23 03:34N 54°52' E 015°30'1110.7
2016-Jun-23 02:33N 55°01' E 015°38'1110.2
2016-Jun-23 01:31N 55°11' E 015°46'1010.3
2016-Jun-23 00:33N 55°20' E 015°53'1210.5
2016-Jun-22 23:24N 55°31' E 016°01'  
2016-Jun-16 10:32N 55°57' E 014°53'12 1.6
2016-Jun-16 03:21N 56°02' E 014°35'0 0.0
2016-Jun-16 01:21N 56°02' E 014°35'0 0.0
2016-Jun-16 00:33N 56°02' E 014°35'0 0.0
2016-Jun-15 23:33N 56°02' E 014°35'0 0.0
2016-Jun-15 19:33N 56°02' E 014°35'0 0.0
2016-Jun-15 18:33N 56°02' E 014°35'0 0.0
2016-Jun-15 17:21N 56°02' E 014°35'0 0.0
2016-Jun-15 16:27N 56°02' E 014°35'0 0.0
2016-Jun-15 15:33N 56°02' E 014°35'0 0.0
2016-Jun-15 14:33N 56°02' E 014°35'0 0.0
2016-Jun-15 13:21N 56°02' E 014°35'0 0.0
2016-Jun-15 12:21N 56°02' E 014°35'0 0.1
2016-Jun-15 11:30N 56°02' E 014°35'8 8.4
2016-Jun-15 10:33N 55°54' E 014°39'1110.7
2016-Jun-15 09:34N 55°44' E 014°39'1111.0
2016-Jun-15 08:33N 55°33' E 014°40'1110.6
2016-Jun-15 07:33N 55°22' E 014°37'1111.2
2016-Jun-15 06:33N 55°13' E 014°24'1111.4
2016-Jun-15 05:33N 55°04' E 014°12'1110.6
2016-Jun-15 04:33N 54°58' E 013°57'  

Dump ship's entire track history